createdAt,value
2022-11-02T00:01:45.539Z,92.08
2022-11-02T00:06:47.290Z,92.45
2022-11-02T00:11:48.916Z,92.80
2022-11-02T00:16:50.819Z,92.51
2022-11-02T00:21:52.882Z,92.83
2022-11-02T00:26:55.163Z,93.17
2022-11-02T00:31:56.794Z,93.45
2022-11-02T00:36:58.598Z,93.53
2022-11-02T00:42:00.293Z,93.96
2022-11-02T00:47:01.904Z,93.98
2022-11-02T00:52:03.798Z,93.86
2022-11-02T00:57:05.545Z,93.77
2022-11-02T01:02:08.084Z,93.71
2022-11-02T01:07:09.959Z,93.80
2022-11-02T01:12:11.547Z,94.04
2022-11-02T01:17:13.232Z,93.95
2022-11-02T01:22:15.995Z,93.99
2022-11-02T01:27:17.600Z,93.63
2022-11-02T01:32:19.610Z,93.79
2022-11-02T01:37:21.458Z,93.69
2022-11-02T01:42:25.369Z,93.45
2022-11-02T01:47:35.195Z,94.21
2022-11-02T01:52:38.075Z,94.14
2022-11-02T01:57:41.421Z,93.91
2022-11-02T02:02:47.538Z,94.01
2022-11-02T02:07:50.373Z,94.45
2022-11-02T02:12:52.599Z,94.04
2022-11-02T02:18:01.276Z,94.05
2022-11-02T02:23:13.930Z,93.76
2022-11-02T02:28:25.206Z,93.35
2022-11-02T02:33:33.391Z,93.01
2022-11-02T02:38:44.671Z,93.29
2022-11-02T02:43:50.798Z,92.48
2022-11-02T02:48:54.628Z,92.05
2022-11-02T02:54:03.453Z,92.43
2022-11-02T02:59:08.105Z,92.09
2022-11-02T03:04:12.682Z,91.83
2022-11-02T03:09:23.883Z,92.05
2022-11-02T03:14:40.423Z,91.97
2022-11-02T03:19:55.648Z,91.66
2022-11-02T03:25:17.799Z,92.40
2022-11-02T03:30:23.287Z,92.06
2022-11-02T03:35:34.829Z,92.33
2022-11-02T03:40:44.331Z,91.77
2022-11-02T03:45:58.185Z,91.97
2022-11-02T03:51:05.290Z,91.67
2022-11-02T03:56:10.229Z,91.82
2022-11-02T04:01:15.156Z,91.54
2022-11-02T04:06:17.860Z,91.63
2022-11-02T04:11:38.326Z,91.74
2022-11-02T04:16:44.207Z,92.12
2022-11-02T04:22:17.189Z,91.29
2022-11-02T04:27:22.770Z,91.24
2022-11-02T04:32:44.784Z,90.16
2022-11-02T04:38:08.735Z,89.86
2022-11-02T04:43:13.655Z,90.47
2022-11-02T04:48:15.948Z,90.31
2022-11-02T04:53:17.856Z,89.94
2022-11-02T04:58:20.292Z,90.46
2022-11-02T05:03:22.696Z,89.99
2022-11-02T05:08:24.406Z,90.01
2022-11-02T05:13:26.879Z,89.53
2022-11-02T05:18:31.826Z,89.43
2022-11-02T05:23:33.540Z,89.66
2022-11-02T05:28:36.122Z,89.76
2022-11-02T05:33:39.741Z,89.30
2022-11-02T05:38:55.625Z,88.82
2022-11-02T05:43:58.028Z,89.11
2022-11-02T05:49:02.693Z,88.92
2022-11-02T05:54:04.540Z,88.42
2022-11-02T05:59:06.191Z,88.56
2022-11-02T06:04:08.029Z,88.80
2022-11-02T06:09:09.732Z,88.90
2022-11-02T06:14:11.452Z,88.77
2022-11-02T06:19:16.131Z,88.91
2022-11-02T06:24:17.841Z,88.49
2022-11-02T06:29:19.454Z,87.83
2022-11-02T06:34:21.033Z,87.88
2022-11-02T06:39:22.811Z,87.35
2022-11-02T06:44:24.488Z,86.04
2022-11-02T06:49:26.121Z,85.72
2022-11-02T06:54:27.715Z,85.59
2022-11-02T06:59:29.310Z,85.28
2022-11-02T07:04:30.931Z,84.96
2022-11-02T07:09:35.931Z,85.28
2022-11-02T07:14:37.545Z,85.84
2022-11-02T07:19:39.181Z,85.76
2022-11-02T07:24:40.844Z,85.73
2022-11-02T07:29:42.485Z,85.83
2022-11-02T07:34:44.067Z,85.00
2022-11-02T07:39:45.673Z,84.16
2022-11-02T07:44:47.317Z,83.61
2022-11-02T07:49:49.137Z,83.25
2022-11-02T07:54:50.762Z,82.72
2022-11-02T07:59:52.349Z,81.77
2022-11-02T08:04:53.933Z,81.16
2022-11-02T08:09:55.556Z,80.25
2022-11-02T08:14:59.009Z,80.01
2022-11-02T08:20:03.052Z,79.65
2022-11-02T08:25:05.513Z,79.59
2022-11-02T08:30:08.014Z,79.20
2022-11-02T08:35:09.706Z,78.59
2022-11-02T08:40:11.864Z,78.92
2022-11-02T08:45:13.539Z,74.56
2022-11-02T08:50:15.215Z,70.41
2022-11-02T08:55:17.118Z,69.71
2022-11-02T09:00:20.584Z,69.29
2022-11-02T09:05:22.223Z,70.31
2022-11-02T09:10:23.888Z,70.23
2022-11-02T09:15:25.502Z,69.24
2022-11-02T09:20:27.216Z,67.14
2022-11-02T09:25:28.891Z,67.91
2022-11-02T09:30:30.558Z,67.02
2022-11-02T09:35:34.544Z,67.36
2022-11-02T09:40:59.339Z,66.93
2022-11-02T09:46:08.360Z,66.23
2022-11-02T09:51:19.002Z,65.90
2022-11-02T09:56:20.876Z,65.25
2022-11-02T10:01:34.846Z,64.68
2022-11-02T10:06:37.995Z,65.12
2022-11-02T10:11:55.258Z,65.19
2022-11-02T10:16:59.520Z,64.90
2022-11-02T10:22:01.283Z,65.28
2022-11-02T10:27:13.875Z,65.48
2022-11-02T10:32:16.341Z,64.86
2022-11-02T10:37:37.487Z,63.21
2022-11-02T10:43:01.092Z,63.23
2022-11-02T10:48:38.338Z,62.09
2022-11-02T10:53:42.728Z,62.61
2022-11-02T10:58:51.400Z,61.83
2022-11-02T11:04:03.030Z,62.23
2022-11-02T11:09:20.317Z,61.91
2022-11-02T11:19:52.609Z,62.13
2022-11-02T11:25:27.644Z,60.94
2022-11-02T11:35:56.664Z,61.12
2022-11-02T11:40:59.652Z,61.83
2022-11-02T11:46:06.478Z,62.07
2022-11-02T11:51:31.821Z,61.73
2022-11-02T11:56:33.988Z,61.54
2022-11-02T12:01:40.024Z,60.68
2022-11-02T12:07:15.777Z,60.07
2022-11-02T12:12:30.487Z,59.03
2022-11-02T12:17:55.461Z,57.97
2022-11-02T12:23:15.309Z,59.30
2022-11-02T12:28:50.758Z,59.30
2022-11-02T12:34:10.669Z,59.80
2022-11-02T12:39:35.460Z,60.08
2022-11-02T12:45:01.925Z,60.58
2022-11-02T12:50:24.531Z,60.62
2022-11-02T12:55:37.302Z,60.46
2022-11-02T13:00:43.057Z,60.27
2022-11-02T13:05:54.230Z,61.02
2022-11-02T13:10:59.280Z,60.83
2022-11-02T13:16:01.436Z,60.42
2022-11-02T13:21:04.308Z,59.31
2022-11-02T13:26:27.517Z,58.23
2022-11-02T13:31:44.902Z,57.85
2022-11-02T13:36:47.030Z,58.64
2022-11-02T13:42:25.643Z,58.96
2022-11-02T13:47:33.225Z,58.75
2022-11-02T13:52:40.983Z,58.80
2022-11-02T13:58:03.127Z,59.26
2022-11-02T14:03:08.132Z,58.28
2022-11-02T14:08:11.550Z,59.66
2022-11-02T14:13:13.822Z,60.63
2022-11-02T14:18:27.084Z,60.98
2022-11-02T14:23:35.319Z,59.79
2022-11-02T14:28:43.650Z,59.86
2022-11-02T14:34:08.400Z,59.71
2022-11-02T14:39:12.731Z,59.17
2022-11-02T14:44:24.139Z,59.74
2022-11-02T14:49:28.326Z,59.58
2022-11-02T14:54:32.495Z,58.60
2022-11-02T14:59:38.374Z,59.69
2022-11-02T15:04:46.338Z,59.66
2022-11-02T15:09:59.216Z,60.23
2022-11-02T15:15:05.952Z,61.13
2022-11-02T15:20:16.708Z,61.28
2022-11-02T15:25:24.407Z,62.12
2022-11-02T15:30:28.558Z,62.57
2022-11-02T15:35:34.895Z,63.60
2022-11-02T15:40:46.685Z,62.50
2022-11-02T15:46:14.018Z,62.78
2022-11-02T15:51:19.708Z,63.23
2022-11-02T15:56:45.938Z,63.90
2022-11-02T16:02:02.652Z,64.26
2022-11-02T16:07:05.581Z,64.56
2022-11-02T16:12:21.567Z,64.41
2022-11-02T16:17:24.686Z,63.89
2022-11-02T16:22:26.947Z,63.93
2022-11-02T16:27:28.555Z,64.75
2022-11-02T16:32:30.284Z,64.88
2022-11-02T16:37:32.424Z,65.58
2022-11-02T16:42:34.034Z,66.43
2022-11-02T16:47:40.595Z,66.98
2022-11-02T16:52:42.217Z,67.64
2022-11-02T16:57:45.134Z,68.85
2022-11-02T17:02:47.437Z,69.01
2022-11-02T17:08:01.233Z,69.51
2022-11-02T17:13:07.187Z,69.94
2022-11-02T17:18:09.154Z,70.14
2022-11-02T17:23:31.849Z,70.75
2022-11-02T17:28:33.373Z,70.86
2022-11-02T17:33:35.135Z,71.18
2022-11-02T17:38:36.779Z,71.66
2022-11-02T17:43:38.377Z,72.20
2022-11-02T17:48:40.075Z,72.15
2022-11-02T17:53:42.175Z,72.75
2022-11-02T17:58:43.777Z,73.02
2022-11-02T18:03:45.419Z,73.06
2022-11-02T18:09:05.662Z,74.31
2022-11-02T18:14:13.399Z,74.06
2022-11-02T18:19:16.757Z,74.07
2022-11-02T18:24:18.935Z,74.47
2022-11-02T18:29:20.557Z,74.99
2022-11-02T18:34:22.148Z,75.05
2022-11-02T18:39:23.761Z,74.84
2022-11-02T18:44:25.349Z,74.92
2022-11-02T18:49:26.976Z,75.50
2022-11-02T18:54:28.573Z,76.09
2022-11-02T18:59:30.243Z,76.00
2022-11-02T19:04:32.500Z,76.22
2022-11-02T19:09:35.878Z,76.42
2022-11-02T19:14:42.360Z,76.19
2022-11-02T19:19:45.487Z,76.44
2022-11-02T19:24:47.364Z,76.35
2022-11-02T19:29:49.236Z,76.50
2022-11-02T19:34:50.811Z,76.66
2022-11-02T19:39:52.389Z,76.78
2022-11-02T19:44:53.955Z,76.84
2022-11-02T19:49:55.604Z,76.62
2022-11-02T19:54:57.300Z,76.73
2022-11-02T19:59:58.917Z,76.56
2022-11-02T20:05:00.547Z,76.26
2022-11-02T20:10:02.156Z,76.61
2022-11-02T20:15:04.545Z,76.99
2022-11-02T20:20:06.760Z,76.10
2022-11-02T20:25:08.861Z,76.38
2022-11-02T20:30:11.604Z,76.72
2022-11-02T20:35:13.951Z,77.38
2022-11-02T20:40:16.009Z,78.71
2022-11-02T20:45:18.399Z,78.79
2022-11-02T20:50:24.803Z,78.88
2022-11-02T20:55:27.584Z,79.53
2022-11-02T21:00:29.240Z,79.60
2022-11-02T21:05:30.957Z,78.27
2022-11-02T21:10:32.563Z,78.77
2022-11-02T21:15:37.194Z,77.77
2022-11-02T21:20:38.964Z,77.80
2022-11-02T21:25:40.632Z,77.85
2022-11-02T21:30:42.222Z,78.56
2022-11-02T21:35:43.791Z,79.43
2022-11-02T21:40:45.381Z,80.28
2022-11-02T21:45:58.564Z,80.67
2022-11-02T21:51:12.914Z,81.06
2022-11-02T21:56:19.824Z,81.83
2022-11-02T22:01:45.188Z,82.28
2022-11-02T22:06:47.751Z,83.15
2022-11-02T22:12:09.330Z,83.93
2022-11-02T22:17:21.853Z,83.87
2022-11-02T22:22:30.225Z,83.90
2022-11-02T22:27:31.858Z,83.86
2022-11-02T22:32:33.897Z,84.37
2022-11-02T22:37:53.811Z,83.58
2022-11-02T22:42:55.957Z,84.06
2022-11-02T22:47:57.550Z,84.25
2022-11-02T22:52:59.124Z,84.42
2022-11-02T22:58:00.786Z,84.84
2022-11-02T23:03:02.541Z,85.52
2022-11-02T23:08:04.496Z,84.94
2022-11-02T23:13:06.418Z,84.62
2022-11-02T23:18:08.345Z,84.60
2022-11-02T23:23:28.280Z,84.68
2022-11-02T23:28:48.448Z,84.97
2022-11-02T23:33:50.034Z,84.80
2022-11-02T23:39:09.957Z,84.63
2022-11-02T23:44:12.164Z,84.92
2022-11-02T23:49:16.810Z,84.74
2022-11-02T23:54:36.661Z,85.64
2022-11-02T23:59:38.654Z,85.62
